Time;durP1;ratioP1;P1;durP2;ratioP2;P2;SDS_P1;SDS_P2;PMS_P1;PMS_P2;Temp;Humidity;BMP_temperature;BMP_pressure;BME280_temperature;BME280_humidity;BME280_pressure;Samples;Min_cycle;Max_cycle;Signal;HPM_P1;HPM_P2
2021/06/09 00:01:37;;;;;;;3.70;2.47;;;;;;;;;;5141042;27;20314;-71
2021/06/09 00:04:05;;;;;;;4.13;2.93;;;;;;;;;;5140568;27;20828;-70
2021/06/09 00:06:33;;;;;;;2.40;2.20;;;;;;;;;;5140608;27;20236;-72
2021/06/09 00:09:00;;;;;;;2.47;2.27;;;;;;;;;;5140336;27;20208;-71
2021/06/09 00:11:29;;;;;;;3.07;2.80;;;;;;;;;;5140595;27;20301;-71
2021/06/09 00:13:57;;;;;;;2.73;2.53;;;;;;;;;;5137192;27;20214;-71
2021/06/09 00:16:25;;;;;;;2.60;2.40;;;;;;;;;;5140415;27;20205;-70
2021/06/09 00:18:52;;;;;;;3.00;2.70;;;;;;;;;;5140459;27;20212;-70
2021/06/09 00:21:20;;;;;;;4.17;2.70;;;;;;;;;;5139700;27;20251;-70
2021/06/09 00:23:48;;;;;;;3.37;2.83;;;;;;;;;;5139665;27;20209;-71
2021/06/09 00:26:18;;;;;;;2.80;2.60;;;;;;;;;;5135277;27;20217;-71
2021/06/09 00:28:47;;;;;;;2.83;2.63;;;;;;;;;;5139177;27;20207;-71
2021/06/09 00:31:15;;;;;;;3.47;2.70;;;;;;;;;;5139149;27;20256;-71
2021/06/09 00:33:43;;;;;;;3.67;2.67;;;;;;;;;;5138527;27;20216;-71
2021/06/09 00:36:10;;;;;;;4.43;2.80;;;;;;;;;;5140085;27;20665;-71
2021/06/09 00:38:38;;;;;;;3.10;2.90;;;;;;;;;;5140424;27;20211;-71
2021/06/09 00:41:07;;;;;;;3.20;2.70;;;;;;;;;;5140327;27;20207;-71
2021/06/09 00:43:35;;;;;;;4.60;4.20;;;;;;;;;;5140196;27;20210;-71
2021/06/09 00:46:05;;;;;;;3.20;2.77;;;;;;;;;;5140068;27;20212;-71
2021/06/09 00:48:34;;;;;;;2.57;2.37;;;;;;;;;;5140427;27;20202;-71
2021/06/09 00:51:02;;;;;;;3.93;2.70;;;;;;;;;;5139888;27;20207;-71
2021/06/09 00:53:33;;;;;;;2.60;2.40;;;;;;;;;;5140164;27;20642;-71
2021/06/09 00:56:01;;;;;;;5.13;2.50;;;;;;;;;;5140242;27;20288;-71
2021/06/09 00:58:29;;;;;;;2.83;2.60;;;;;;;;;;5140247;27;20283;-71
2021/06/09 01:00:56;;;;;;;2.80;2.53;;;;;;;;;;5134930;27;20210;-71
2021/06/09 01:03:26;;;;;;;3.17;2.87;;;;;;;;;;5138453;27;20589;-71
2021/06/09 01:05:54;;;;;;;4.43;2.30;;;;;;;;;;5140002;27;20203;-72
2021/06/09 01:08:22;;;;;;;2.63;2.43;;;;;;;;;;5140037;27;20592;-71
2021/06/09 01:10:50;;;;;;;2.77;2.50;;;;;;;;;;5140016;27;20207;-71
2021/06/09 01:13:20;;;;;;;2.70;2.50;;;;;;;;;;5137513;27;20207;-71
2021/06/09 01:15:48;;;;;;;3.87;2.67;;;;;;;;;;5139615;27;20201;-71
2021/06/09 01:18:16;;;;;;;2.77;2.57;;;;;;;;;;5139436;27;20293;-71
2021/06/09 01:20:45;;;;;;;3.27;2.53;;;;;;;;;;5139529;27;20694;-70
2021/06/09 01:23:14;;;;;;;2.67;2.47;;;;;;;;;;5139004;27;20309;-71
2021/06/09 01:25:42;;;;;;;2.60;2.40;;;;;;;;;;5139680;27;20294;-72
2021/06/09 01:28:10;;;;;;;2.60;2.40;;;;;;;;;;5138883;27;20238;-71
2021/06/09 01:30:38;;;;;;;4.57;2.40;;;;;;;;;;5138946;27;20249;-71
2021/06/09 01:33:06;;;;;;;2.60;2.40;;;;;;;;;;5139273;27;20230;-72
2021/06/09 01:35:34;;;;;;;2.83;2.60;;;;;;;;;;5138917;27;20632;-72
2021/06/09 01:38:02;;;;;;;3.50;2.70;;;;;;;;;;5139023;27;20255;-71
2021/06/09 01:40:31;;;;;;;2.80;2.60;;;;;;;;;;5139324;27;20297;-71
2021/06/09 01:42:58;;;;;;;3.23;2.80;;;;;;;;;;5139112;27;20227;-72
2021/06/09 01:45:26;;;;;;;3.00;2.80;;;;;;;;;;5139047;27;20210;-71
2021/06/09 01:47:54;;;;;;;3.03;2.37;;;;;;;;;;5138587;27;20226;-72
2021/06/09 01:50:22;;;;;;;2.77;2.57;;;;;;;;;;5138836;27;20590;-70
2021/06/09 01:52:51;;;;;;;3.33;3.00;;;;;;;;;;5138090;27;20229;-71
2021/06/09 01:55:19;;;;;;;3.90;2.90;;;;;;;;;;5139054;27;20287;-71
2021/06/09 01:57:48;;;;;;;3.10;2.90;;;;;;;;;;5138994;27;20192;-72
2021/06/09 02:00:18;;;;;;;3.33;2.87;;;;;;;;;;5137652;27;20210;-72
2021/06/09 02:02:45;;;;;;;3.63;3.33;;;;;;;;;;5137261;27;20322;-72
2021/06/09 02:05:13;;;;;;;3.00;2.80;;;;;;;;;;5138775;27;20627;-70
2021/06/09 02:07:42;;;;;;;3.60;2.97;;;;;;;;;;5125000;27;20322;-71
2021/06/09 02:10:11;;;;;;;3.20;3.00;;;;;;;;;;5138659;27;20214;-71
2021/06/09 02:12:40;;;;;;;3.83;3.40;;;;;;;;;;5136984;27;20224;-71
2021/06/09 02:15:10;;;;;;;4.03;3.07;;;;;;;;;;5138797;27;20206;-71
2021/06/09 02:17:38;;;;;;;3.50;3.20;;;;;;;;;;5138627;28;20208;-71
2021/06/09 02:20:06;;;;;;;5.07;3.50;;;;;;;;;;5138697;28;20295;-72
2021/06/09 02:22:35;;;;;;;3.60;3.30;;;;;;;;;;5138735;28;20290;-71
2021/06/09 02:25:04;;;;;;;4.03;3.63;;;;;;;;;;5138513;28;20582;-72
2021/06/09 02:27:32;;;;;;;7.07;3.47;;;;;;;;;;5137643;28;20231;-72
2021/06/09 02:30:00;;;;;;;3.90;3.50;;;;;;;;;;5124749;28;20230;-71
2021/06/09 02:32:28;;;;;;;7.33;3.80;;;;;;;;;;5136589;28;20227;-72
2021/06/09 02:34:56;;;;;;;3.67;3.33;;;;;;;;;;5137046;28;20247;-70
2021/06/09 02:37:24;;;;;;;3.83;3.40;;;;;;;;;;5137437;28;20633;-71
2021/06/09 02:39:51;;;;;;;5.47;3.77;;;;;;;;;;5137998;28;20203;-71
2021/06/09 02:42:19;;;;;;;4.87;3.87;;;;;;;;;;5137711;28;20237;-71
2021/06/09 02:44:47;;;;;;;3.67;3.37;;;;;;;;;;5138020;28;20210;-71
2021/06/09 02:47:16;;;;;;;5.17;3.70;;;;;;;;;;5138398;28;20228;-71
2021/06/09 02:49:45;;;;;;;3.50;3.20;;;;;;;;;;5139384;27;20289;-71
2021/06/09 02:52:15;;;;;;;4.70;4.10;;;;;;;;;;5142314;27;20227;-70
2021/06/09 02:54:46;;;;;;;4.27;3.40;;;;;;;;;;5142600;27;20208;-70
2021/06/09 02:57:19;;;;;;;6.30;3.50;;;;;;;;;;5142451;27;20204;-71
2021/06/09 02:59:55;;;;;;;4.70;4.30;;;;;;;;;;5142006;27;20214;-71
2021/06/09 03:02:28;;;;;;;5.43;3.60;;;;;;;;;;5141806;27;20229;-71
2021/06/09 03:05:02;;;;;;;5.30;3.87;;;;;;;;;;5141810;27;20202;-71
2021/06/09 03:07:32;;;;;;;4.27;3.87;;;;;;;;;;5141671;27;20662;-71
2021/06/09 03:10:04;;;;;;;9.03;4.30;;;;;;;;;;5142009;27;20208;-71
2021/06/09 03:12:38;;;;;;;4.70;3.60;;;;;;;;;;5128078;27;20308;-71
2021/06/09 03:15:13;;;;;;;6.10;4.00;;;;;;;;;;5141346;27;20216;-70
2021/06/09 03:17:45;;;;;;;4.83;4.30;;;;;;;;;;5140815;27;20211;-70
2021/06/09 03:20:19;;;;;;;5.50;5.00;;;;;;;;;;5141205;27;20655;-71
2021/06/09 03:22:51;;;;;;;4.10;3.73;;;;;;;;;;5140862;27;20226;-72
2021/06/09 03:25:22;;;;;;;5.67;4.20;;;;;;;;;;5140840;27;20212;-71
2021/06/09 03:27:51;;;;;;;4.70;4.30;;;;;;;;;;5140934;27;20311;-70
2021/06/09 03:30:20;;;;;;;5.30;3.83;;;;;;;;;;5140842;27;20282;-70
2021/06/09 03:32:50;;;;;;;4.30;3.90;;;;;;;;;;5140514;27;20242;-72
2021/06/09 03:35:21;;;;;;;5.70;4.30;;;;;;;;;;5134978;27;20211;-71
2021/06/09 03:37:51;;;;;;;5.60;4.20;;;;;;;;;;5140776;27;20204;-71
2021/06/09 03:40:21;;;;;;;4.60;4.20;;;;;;;;;;5141292;27;20200;-71
2021/06/09 03:42:52;;;;;;;4.80;4.40;;;;;;;;;;5140929;27;20224;-71
2021/06/09 03:45:22;;;;;;;4.43;4.03;;;;;;;;;;5140936;27;20219;-72
2021/06/09 03:47:51;;;;;;;4.60;4.00;;;;;;;;;;5140712;27;20281;-72
2021/06/09 03:50:22;;;;;;;4.80;4.27;;;;;;;;;;5140654;27;20248;-71
2021/06/09 03:52:50;;;;;;;6.00;4.30;;;;;;;;;;5140588;27;20236;-72
2021/06/09 03:55:20;;;;;;;4.77;4.10;;;;;;;;;;5140770;27;20211;-72
2021/06/09 03:57:48;;;;;;;4.47;3.97;;;;;;;;;;5140743;27;20200;-72
2021/06/09 04:00:17;;;;;;;4.33;3.93;;;;;;;;;;5140874;27;20204;-71
2021/06/09 04:02:46;;;;;;;4.70;4.03;;;;;;;;;;5140433;27;20702;-71
2021/06/09 04:05:14;;;;;;;4.47;4.07;;;;;;;;;;5140781;27;20203;-72
2021/06/09 04:07:43;;;;;;;4.70;4.27;;;;;;;;;;5126994;27;20623;-71
2021/06/09 04:10:12;;;;;;;4.60;4.10;;;;;;;;;;5141130;27;20207;-72
2021/06/09 04:12:40;;;;;;;4.73;4.17;;;;;;;;;;5140455;27;20609;-71
2021/06/09 04:15:10;;;;;;;4.37;3.97;;;;;;;;;;5141083;27;20208;-72
2021/06/09 04:17:39;;;;;;;8.40;4.93;;;;;;;;;;5140429;27;20659;-72
2021/06/09 04:20:07;;;;;;;6.17;4.37;;;;;;;;;;5140176;27;20286;-72
2021/06/09 04:22:35;;;;;;;5.27;4.77;;;;;;;;;;5139899;27;20224;-72
2021/06/09 04:25:06;;;;;;;5.00;4.50;;;;;;;;;;5139544;27;20211;-72
2021/06/09 04:27:38;;;;;;;7.30;4.03;;;;;;;;;;5139677;27;20204;-71
2021/06/09 04:30:06;;;;;;;5.00;4.50;;;;;;;;;;5139195;27;20244;-70
2021/06/09 04:32:47;;;;;;;9.37;4.80;;;;;;;;;;5139110;27;20228;-71
2021/06/09 04:35:14;;;;;;;9.60;5.13;;;;;;;;;;5126162;27;20204;-71
2021/06/09 04:37:42;;;;;;;6.63;4.27;;;;;;;;;;5140160;27;20199;-72
2021/06/09 04:40:16;;;;;;;10.33;4.60;;;;;;;;;;5140544;27;20288;-72
2021/06/09 04:42:44;;;;;;;5.37;4.27;;;;;;;;;;5140230;27;20239;-74
2021/06/09 04:45:12;;;;;;;6.17;4.57;;;;;;;;;;5139204;27;20295;-72
2021/06/09 04:47:39;;;;;;;10.80;5.00;;;;;;;;;;5139604;27;20214;-72
2021/06/09 04:50:08;;;;;;;7.83;4.70;;;;;;;;;;5139634;27;20209;-71
2021/06/09 04:52:35;;;;;;;5.87;4.80;;;;;;;;;;5139465;27;20236;-71
2021/06/09 04:55:04;;;;;;;8.57;5.37;;;;;;;;;;5139409;27;20263;-72
2021/06/09 04:57:33;;;;;;;7.90;4.97;;;;;;;;;;5139048;27;20206;-72
2021/06/09 05:00:00;;;;;;;6.97;4.93;;;;;;;;;;5138916;27;20575;-71
2021/06/09 05:02:28;;;;;;;7.50;5.30;;;;;;;;;;5138850;27;20224;-74
2021/06/09 05:04:55;;;;;;;5.33;4.80;;;;;;;;;;5139054;27;20627;-72
2021/06/09 05:07:23;;;;;;;6.53;4.87;;;;;;;;;;5138794;27;20206;-73
2021/06/09 05:09:50;;;;;;;6.77;4.77;;;;;;;;;;5138880;27;20225;-73
2021/06/09 05:12:19;;;;;;;8.93;5.73;;;;;;;;;;5135508;27;20224;-72
2021/06/09 05:14:49;;;;;;;5.60;5.10;;;;;;;;;;5138587;27;20761;-73
2021/06/09 05:17:18;;;;;;;5.80;5.13;;;;;;;;;;5138320;27;20662;-73
2021/06/09 05:19:48;;;;;;;5.73;5.13;;;;;;;;;;5139414;27;20233;-73
2021/06/09 05:22:19;;;;;;;5.97;5.27;;;;;;;;;;5139079;27;20571;-73
2021/06/09 05:24:47;;;;;;;6.57;5.20;;;;;;;;;;5139500;27;20212;-72
2021/06/09 05:27:15;;;;;;;6.73;5.00;;;;;;;;;;5139510;27;20208;-73
2021/06/09 05:29:45;;;;;;;6.33;5.73;;;;;;;;;;5138338;27;20243;-73
2021/06/09 05:32:14;;;;;;;8.97;5.67;;;;;;;;;;5139022;27;20225;-72
2021/06/09 05:34:42;;;;;;;8.33;5.80;;;;;;;;;;5138580;27;20212;-73
2021/06/09 05:37:11;;;;;;;5.73;5.00;;;;;;;;;;5133514;27;20218;-71
2021/06/09 05:39:39;;;;;;;9.03;5.90;;;;;;;;;;5138529;27;20196;-72
2021/06/09 05:42:07;;;;;;;6.90;5.80;;;;;;;;;;5138399;27;20225;-72
2021/06/09 05:44:35;;;;;;;10.23;6.80;;;;;;;;;;5134428;27;20207;-73
2021/06/09 05:47:03;;;;;;;9.93;5.67;;;;;;;;;;5128133;27;20208;-71
2021/06/09 05:49:32;;;;;;;6.53;5.60;;;;;;;;;;5137976;27;20282;-69
2021/06/09 05:52:00;;;;;;;7.00;5.23;;;;;;;;;;5138317;27;20236;-68
2021/06/09 05:54:33;;;;;;;7.77;5.50;;;;;;;;;;5139425;27;20217;-69
2021/06/09 05:57:01;;;;;;;9.47;6.07;;;;;;;;;;5138983;27;20201;-71
2021/06/09 05:59:28;;;;;;;9.10;5.87;;;;;;;;;;5138485;27;20294;-70
2021/06/09 06:01:56;;;;;;;9.37;6.60;;;;;;;;;;5137659;27;20227;-69
2021/06/09 06:04:23;;;;;;;6.97;5.90;;;;;;;;;;5138477;27;20203;-71
2021/06/09 06:06:53;;;;;;;8.90;7.23;;;;;;;;;;5138389;27;20204;-70
2021/06/09 06:09:20;;;;;;;6.50;5.80;;;;;;;;;;5138732;27;20225;-70
2021/06/09 06:11:48;;;;;;;7.00;5.77;;;;;;;;;;5136086;27;20298;-69
2021/06/09 06:14:16;;;;;;;13.00;6.67;;;;;;;;;;5125154;27;20200;-70
2021/06/09 06:16:50;;;;;;;8.77;6.17;;;;;;;;;;5137776;27;20209;-70
2021/06/09 06:19:18;;;;;;;8.07;6.80;;;;;;;;;;5137133;28;20562;-70
2021/06/09 06:21:46;;;;;;;10.47;5.80;;;;;;;;;;5133966;28;20233;-70
2021/06/09 06:24:17;;;;;;;8.53;6.87;;;;;;;;;;5135634;27;20197;-70
2021/06/09 06:26:45;;;;;;;12.70;8.07;;;;;;;;;;5141469;27;20200;-69
2021/06/09 06:29:13;;;;;;;8.03;6.40;;;;;;;;;;5141749;27;20232;-70
2021/06/09 06:31:40;;;;;;;11.87;6.87;;;;;;;;;;5097338;28;20224;-70
2021/06/09 06:34:08;;;;;;;8.73;6.60;;;;;;;;;;5100938;28;20640;-72
2021/06/09 06:36:37;;;;;;;9.93;7.60;;;;;;;;;;5098212;28;20280;-72
2021/06/09 06:39:05;;;;;;;8.63;6.77;;;;;;;;;;5092088;28;20229;-72
2021/06/09 06:41:34;;;;;;;9.17;7.43;;;;;;;;;;5096044;28;20225;-72
2021/06/09 06:44:02;;;;;;;9.10;7.00;;;;;;;;;;5100389;28;20241;-72
2021/06/09 06:46:29;;;;;;;9.13;7.13;;;;;;;;;;5100975;28;20209;-72
2021/06/09 06:48:57;;;;;;;13.20;7.70;;;;;;;;;;5101331;28;20232;-70
2021/06/09 06:51:25;;;;;;;8.17;7.13;;;;;;;;;;5101237;28;20236;-71
2021/06/09 06:53:54;;;;;;;10.60;6.90;;;;;;;;;;5100821;28;20610;-72
2021/06/09 06:56:22;;;;;;;9.70;7.53;;;;;;;;;;5100745;28;20240;-72
2021/06/09 06:58:52;;;;;;;9.70;6.70;;;;;;;;;;5100702;28;20638;-72
2021/06/09 07:01:19;;;;;;;12.07;7.10;;;;;;;;;;5100213;28;20229;-71
2021/06/09 07:03:48;;;;;;;8.83;7.37;;;;;;;;;;5100786;28;20212;-71
2021/06/09 07:06:16;;;;;;;8.70;7.73;;;;;;;;;;5100970;28;20357;-70
2021/06/09 07:08:44;;;;;;;10.60;7.77;;;;;;;;;;5100622;28;20222;-71
2021/06/09 07:11:12;;;;;;;9.97;8.03;;;;;;;;;;5100686;28;20683;-72
2021/06/09 07:13:40;;;;;;;9.17;8.27;;;;;;;;;;5098512;28;20203;-72
2021/06/09 07:16:10;;;;;;;9.77;8.40;;;;;;;;;;5096922;28;20228;-71
2021/06/09 07:18:43;;;;;;;10.77;8.53;;;;;;;;;;5093211;28;20693;-69
2021/06/09 07:21:13;;;;;;;8.53;7.67;;;;;;;;;;5095727;28;20262;-71
2021/06/09 07:23:41;;;;;;;9.27;8.00;;;;;;;;;;5100810;28;20210;-70
2021/06/09 07:26:12;;;;;;;11.93;7.77;;;;;;;;;;5101010;28;20238;-70
2021/06/09 07:28:41;;;;;;;9.23;6.83;;;;;;;;;;5100478;28;20210;-71
2021/06/09 07:31:10;;;;;;;9.10;8.00;;;;;;;;;;5132584;27;20598;-70
2021/06/09 07:33:38;;;;;;;10.20;7.13;;;;;;;;;;5141382;27;20212;-67
2021/06/09 07:36:07;;;;;;;8.03;6.77;;;;;;;;;;5140927;27;20591;-68
2021/06/09 07:38:36;;;;;;;9.87;7.97;;;;;;;;;;5137871;27;20207;-69
2021/06/09 07:41:05;;;;;;;8.97;7.07;;;;;;;;;;5141057;27;20560;-68
2021/06/09 07:43:37;;;;;;;7.90;7.10;;;;;;;;;;5141951;27;20226;-67
2021/06/09 07:46:05;;;;;;;8.63;7.70;;;;;;;;;;5140791;27;20206;-69
2021/06/09 07:48:36;;;;;;;13.13;8.10;;;;;;;;;;5139700;27;20671;-71
2021/06/09 07:51:05;;;;;;;9.03;7.47;;;;;;;;;;5136886;27;20291;-70
2021/06/09 07:53:34;;;;;;;10.17;8.27;;;;;;;;;;5140058;27;20206;-70
2021/06/09 07:56:01;;;;;;;9.40;8.50;;;;;;;;;;5140088;27;20216;-70
2021/06/09 07:58:31;;;;;;;14.23;8.80;;;;;;;;;;5140385;27;20215;-70
2021/06/09 08:00:59;;;;;;;8.63;7.53;;;;;;;;;;5137772;27;20201;-70
2021/06/09 08:03:28;;;;;;;11.60;8.33;;;;;;;;;;5133374;27;20203;-71
2021/06/09 08:05:57;;;;;;;9.83;8.00;;;;;;;;;;5140322;27;20283;-71
2021/06/09 08:08:25;;;;;;;10.63;8.70;;;;;;;;;;5140682;27;20229;-71
2021/06/09 08:10:53;;;;;;;10.70;8.10;;;;;;;;;;5140950;27;20253;-70
2021/06/09 08:13:20;;;;;;;10.53;8.33;;;;;;;;;;5138711;27;20204;-71
2021/06/09 08:15:52;;;;;;;9.43;8.03;;;;;;;;;;5140657;27;20244;-70
2021/06/09 08:18:20;;;;;;;9.47;8.00;;;;;;;;;;5140630;27;20243;-70
2021/06/09 08:20:53;;;;;;;10.70;9.60;;;;;;;;;;5140237;27;20204;-70
2021/06/09 08:23:22;;;;;;;14.03;7.87;;;;;;;;;;5139485;27;20229;-71
2021/06/09 08:25:50;;;;;;;11.03;9.07;;;;;;;;;;5139183;27;20656;-71
2021/06/09 08:28:18;;;;;;;9.17;7.93;;;;;;;;;;5139427;27;20210;-70
2021/06/09 08:30:46;;;;;;;9.80;8.80;;;;;;;;;;5138723;27;20228;-70
2021/06/09 08:33:14;;;;;;;11.40;8.53;;;;;;;;;;5139440;27;20256;-70
2021/06/09 08:35:42;;;;;;;11.43;8.40;;;;;;;;;;5139670;27;20207;-70
2021/06/09 08:38:09;;;;;;;10.17;8.60;;;;;;;;;;5139589;27;20669;-70
2021/06/09 08:40:39;;;;;;;10.07;7.53;;;;;;;;;;5139979;27;20215;-70
2021/06/09 08:43:07;;;;;;;13.43;8.43;;;;;;;;;;5140299;27;20229;-69
2021/06/09 08:45:36;;;;;;;14.70;8.87;;;;;;;;;;5139576;27;20559;-70
2021/06/09 08:48:05;;;;;;;11.73;8.17;;;;;;;;;;5139220;27;20204;-70
2021/06/09 08:50:34;;;;;;;12.53;8.57;;;;;;;;;;5139904;27;20232;-70
2021/06/09 08:53:06;;;;;;;10.83;8.07;;;;;;;;;;5140060;27;20255;-70
2021/06/09 08:55:34;;;;;;;11.10;8.03;;;;;;;;;;5140075;27;20210;-70
2021/06/09 08:58:06;;;;;;;13.37;7.83;;;;;;;;;;5140095;27;20216;-70
2021/06/09 09:00:34;;;;;;;9.27;7.77;;;;;;;;;;5139392;27;20655;-70
2021/06/09 09:03:02;;;;;;;11.00;7.90;;;;;;;;;;5139698;27;20227;-68
2021/06/09 09:05:30;;;;;;;14.40;8.90;;;;;;;;;;5139338;27;20212;-68
2021/06/09 09:07:58;;;;;;;9.77;8.20;;;;;;;;;;5139362;27;20707;-68
2021/06/09 09:10:26;;;;;;;10.13;8.43;;;;;;;;;;5139183;27;20310;-69
2021/06/09 09:12:54;;;;;;;10.40;8.43;;;;;;;;;;5127416;27;20594;-69
2021/06/09 09:15:23;;;;;;;9.87;8.87;;;;;;;;;;5139230;27;20205;-68
2021/06/09 09:17:52;;;;;;;11.17;8.23;;;;;;;;;;5139058;27;20234;-68
2021/06/09 09:20:22;;;;;;;14.17;8.83;;;;;;;;;;5139343;27;20203;-68
2021/06/09 09:22:51;;;;;;;13.10;8.37;;;;;;;;;;5139177;27;20251;-69
2021/06/09 09:25:20;;;;;;;12.93;9.00;;;;;;;;;;5139065;27;20659;-68
2021/06/09 09:27:55;;;;;;;11.27;8.90;;;;;;;;;;5138958;27;20248;-68
2021/06/09 09:30:25;;;;;;;11.20;8.47;;;;;;;;;;5138903;27;20299;-68
2021/06/09 09:32:57;;;;;;;12.57;8.03;;;;;;;;;;5139243;27;20220;-69
2021/06/09 09:35:26;;;;;;;9.63;8.20;;;;;;;;;;5138810;27;20209;-69
2021/06/09 09:38:09;;;;;;;8.73;7.60;;;;;;;;;;5138321;27;20242;-68
2021/06/09 09:40:36;;;;;;;12.67;8.20;;;;;;;;;;5138571;27;20609;-69
2021/06/09 09:43:04;;;;;;;9.23;8.20;;;;;;;;;;5138529;27;20293;-69
2021/06/09 09:45:34;;;;;;;10.17;9.10;;;;;;;;;;5138049;27;20858;-68
2021/06/09 09:48:07;;;;;;;11.43;8.67;;;;;;;;;;5138274;27;20279;-68
2021/06/09 09:50:35;;;;;;;9.83;8.17;;;;;;;;;;5137771;27;20258;-69
2021/06/09 09:53:17;;;;;;;8.30;7.43;;;;;;;;;;5138271;27;20225;-69
2021/06/09 09:55:55;;;;;;;10.57;7.40;;;;;;;;;;5138064;27;20236;-68
2021/06/09 09:58:26;;;;;;;9.80;8.13;;;;;;;;;;5138722;27;20236;-68
2021/06/09 10:01:07;;;;;;;10.97;8.47;;;;;;;;;;5137752;27;20658;-69
2021/06/09 10:03:36;;;;;;;9.50;8.10;;;;;;;;;;5138249;27;20210;-69
2021/06/09 10:06:17;;;;;;;10.93;7.87;;;;;;;;;;5128579;27;20685;-69
2021/06/09 10:08:45;;;;;;;9.07;7.80;;;;;;;;;;5137898;27;20203;-69
2021/06/09 10:11:12;;;;;;;8.57;7.17;;;;;;;;;;5138021;27;20227;-71
2021/06/09 10:13:40;;;;;;;8.93;7.63;;;;;;;;;;5133147;27;20205;-71
2021/06/09 10:16:22;;;;;;;10.80;8.10;;;;;;;;;;5138212;27;20199;-71
2021/06/09 10:19:04;;;;;;;10.30;7.80;;;;;;;;;;5138173;27;20209;-71
2021/06/09 10:21:32;;;;;;;9.97;7.90;;;;;;;;;;5137893;27;20222;-70
2021/06/09 10:24:00;;;;;;;9.53;7.73;;;;;;;;;;5137494;28;20213;-71
2021/06/09 10:26:28;;;;;;;11.40;7.63;;;;;;;;;;5137156;28;20723;-69
2021/06/09 10:28:56;;;;;;;10.20;7.93;;;;;;;;;;5137488;28;20209;-68
2021/06/09 10:31:26;;;;;;;12.60;10.13;;;;;;;;;;5136838;28;20338;-68
2021/06/09 10:33:54;;;;;;;9.90;7.83;;;;;;;;;;5137222;28;20206;-70
2021/06/09 10:36:21;;;;;;;9.63;8.27;;;;;;;;;;5137141;28;20208;-69
2021/06/09 10:38:49;;;;;;;11.70;8.00;;;;;;;;;;5137469;28;20209;-67
2021/06/09 10:41:17;;;;;;;10.33;7.53;;;;;;;;;;5137776;28;20210;-68
2021/06/09 10:43:47;;;;;;;10.00;8.20;;;;;;;;;;5138171;28;20219;-70
2021/06/09 10:46:18;;;;;;;10.17;8.67;;;;;;;;;;5137911;28;20290;-69
2021/06/09 10:48:49;;;;;;;9.13;7.87;;;;;;;;;;5137705;28;20684;-69
2021/06/09 10:51:18;;;;;;;8.87;7.97;;;;;;;;;;5138240;28;20255;-69
2021/06/09 10:53:45;;;;;;;9.50;8.60;;;;;;;;;;5138101;28;20653;-71
2021/06/09 10:56:13;;;;;;;10.40;8.27;;;;;;;;;;5137863;28;20210;-70
2021/06/09 10:58:41;;;;;;;9.67;8.67;;;;;;;;;;5138305;28;20205;-69
2021/06/09 11:01:09;;;;;;;11.37;8.47;;;;;;;;;;5137720;28;20197;-66
2021/06/09 11:03:42;;;;;;;10.47;8.37;;;;;;;;;;5137730;28;20209;-66
2021/06/09 11:06:11;;;;;;;9.00;8.10;;;;;;;;;;5131334;28;20307;-68
2021/06/09 11:08:39;;;;;;;12.43;9.07;;;;;;;;;;5124504;28;20204;-68
2021/06/09 11:11:17;;;;;;;9.60;8.60;;;;;;;;;;5139006;27;20589;-67
2021/06/09 11:13:46;;;;;;;10.00;8.27;;;;;;;;;;5132351;27;20201;-66
2021/06/09 11:16:22;;;;;;;10.13;8.07;;;;;;;;;;5138956;27;20218;-67
2021/06/09 11:18:50;;;;;;;11.57;8.13;;;;;;;;;;5134137;27;20249;-67
2021/06/09 11:21:24;;;;;;;9.80;8.80;;;;;;;;;;5136918;27;20651;-68
2021/06/09 11:23:53;;;;;;;10.83;8.27;;;;;;;;;;5132023;27;20193;-67
2021/06/09 11:26:24;;;;;;;8.00;7.20;;;;;;;;;;5135052;27;20280;-69
2021/06/09 11:28:51;;;;;;;10.60;8.13;;;;;;;;;;5134014;27;20203;-68
2021/06/09 11:31:22;;;;;;;10.23;8.10;;;;;;;;;;5134219;27;20296;-67
2021/06/09 11:33:53;;;;;;;13.90;8.50;;;;;;;;;;5138679;27;20224;-69
2021/06/09 11:36:32;;;;;;;9.13;7.30;;;;;;;;;;5139375;27;20241;-68
2021/06/09 11:39:04;;;;;;;11.13;7.70;;;;;;;;;;5140146;27;20794;-69
2021/06/09 11:41:36;;;;;;;9.73;8.70;;;;;;;;;;5140396;27;20610;-68
2021/06/09 11:44:04;;;;;;;8.30;7.50;;;;;;;;;;5140937;27;20207;-68
2021/06/09 11:46:34;;;;;;;8.53;7.63;;;;;;;;;;5140471;27;20212;-68
2021/06/09 11:49:04;;;;;;;9.70;7.67;;;;;;;;;;5140441;27;20610;-67
2021/06/09 11:51:34;;;;;;;9.30;7.07;;;;;;;;;;5140678;27;20666;-68
2021/06/09 11:54:03;;;;;;;10.03;7.17;;;;;;;;;;5140661;27;20251;-69
2021/06/09 11:56:41;;;;;;;7.47;6.77;;;;;;;;;;5140757;27;20200;-69
2021/06/09 11:59:19;;;;;;;8.40;7.47;;;;;;;;;;5140214;27;20283;-69
2021/06/09 12:01:47;;;;;;;7.63;6.93;;;;;;;;;;5139972;27;20222;-69
2021/06/09 12:04:19;;;;;;;10.27;6.90;;;;;;;;;;5139745;27;20664;-69
2021/06/09 12:06:49;;;;;;;8.63;7.07;;;;;;;;;;5140749;27;20203;-66
2021/06/09 12:09:18;;;;;;;6.70;6.13;;;;;;;;;;5137623;27;20280;-71
2021/06/09 12:11:47;;;;;;;9.33;6.13;;;;;;;;;;5122737;27;20268;-72
2021/06/09 12:14:20;;;;;;;7.77;6.03;;;;;;;;;;5131405;27;20211;-73
2021/06/09 12:16:47;;;;;;;7.03;6.33;;;;;;;;;;5140087;27;20287;-75
2021/06/09 12:19:22;;;;;;;7.80;6.90;;;;;;;;;;5131324;27;20199;-73
2021/06/09 12:21:53;;;;;;;7.70;6.50;;;;;;;;;;5132051;27;20220;-74
2021/06/09 12:24:21;;;;;;;6.97;6.27;;;;;;;;;;5130846;27;20686;-73
2021/06/09 12:26:49;;;;;;;8.87;5.73;;;;;;;;;;5135308;27;20272;-73
2021/06/09 12:29:17;;;;;;;7.27;6.33;;;;;;;;;;5139616;27;20210;-73
2021/06/09 12:31:44;;;;;;;7.17;6.47;;;;;;;;;;5139565;27;20310;-73
2021/06/09 12:34:20;;;;;;;6.53;5.77;;;;;;;;;;5133571;27;20280;-73
2021/06/09 12:36:52;;;;;;;6.00;5.50;;;;;;;;;;5130191;27;20208;-73
2021/06/09 12:39:22;;;;;;;7.13;6.27;;;;;;;;;;5135406;27;20197;-73
2021/06/09 12:41:50;;;;;;;5.97;5.33;;;;;;;;;;5130837;27;20217;-74
2021/06/09 12:44:17;;;;;;;5.43;4.93;;;;;;;;;;5132097;27;20200;-74
2021/06/09 12:46:55;;;;;;;6.43;5.80;;;;;;;;;;5129517;27;20201;-73
2021/06/09 12:49:27;;;;;;;5.90;5.30;;;;;;;;;;5129898;27;20539;-74
2021/06/09 12:52:08;;;;;;;6.77;6.17;;;;;;;;;;5130105;27;20238;-74
2021/06/09 12:54:36;;;;;;;6.37;5.77;;;;;;;;;;5130248;27;20537;-74
2021/06/09 12:57:05;;;;;;;6.23;5.63;;;;;;;;;;5130727;27;20199;-74
2021/06/09 12:59:36;;;;;;;6.70;6.03;;;;;;;;;;5130827;27;20211;-73
2021/06/09 13:02:04;;;;;;;6.33;4.93;;;;;;;;;;5138596;27;20355;-72
2021/06/09 13:04:37;;;;;;;5.17;4.67;;;;;;;;;;5138694;27;20563;-72
2021/06/09 13:07:04;;;;;;;5.50;5.00;;;;;;;;;;5138683;27;20208;-72
2021/06/09 13:09:33;;;;;;;5.53;4.93;;;;;;;;;;5132362;27;20206;-73
2021/06/09 13:12:02;;;;;;;5.27;4.77;;;;;;;;;;5133243;27;20245;-72
2021/06/09 13:14:30;;;;;;;5.50;4.90;;;;;;;;;;5138747;27;20239;-72
2021/06/09 13:17:05;;;;;;;5.33;4.83;;;;;;;;;;5138578;27;20226;-72
2021/06/09 13:19:33;;;;;;;6.30;4.70;;;;;;;;;;5138877;27;20271;-72
2021/06/09 13:22:01;;;;;;;4.87;4.47;;;;;;;;;;5138972;27;20221;-72
2021/06/09 13:24:31;;;;;;;5.00;4.50;;;;;;;;;;5139514;27;20212;-71
2021/06/09 13:27:04;;;;;;;4.90;4.17;;;;;;;;;;5139209;27;20203;-72
2021/06/09 13:29:35;;;;;;;7.10;4.20;;;;;;;;;;5139309;27;20204;-72
2021/06/09 13:32:17;;;;;;;7.37;3.87;;;;;;;;;;5139091;27;20246;-72
2021/06/09 13:34:46;;;;;;;4.70;4.17;;;;;;;;;;5138975;27;20209;-72
2021/06/09 13:37:16;;;;;;;5.37;4.03;;;;;;;;;;5139421;27;20209;-72
2021/06/09 13:39:44;;;;;;;6.13;4.13;;;;;;;;;;5138948;27;20301;-72
2021/06/09 13:42:15;;;;;;;5.37;4.30;;;;;;;;;;5138764;27;20214;-72
2021/06/09 13:44:44;;;;;;;4.87;4.37;;;;;;;;;;5139068;27;20207;-72
2021/06/09 13:47:19;;;;;;;6.60;4.73;;;;;;;;;;5138414;27;20205;-72
2021/06/09 13:49:53;;;;;;;4.27;3.87;;;;;;;;;;5138437;27;20568;-72
2021/06/09 13:52:25;;;;;;;7.73;4.23;;;;;;;;;;5138590;27;20324;-72
2021/06/09 13:54:55;;;;;;;4.30;3.90;;;;;;;;;;5138455;27;20289;-72
2021/06/09 13:57:27;;;;;;;5.40;3.80;;;;;;;;;;5137993;27;20588;-72
2021/06/09 13:59:56;;;;;;;4.97;4.00;;;;;;;;;;5137814;27;20206;-72
2021/06/09 14:02:27;;;;;;;5.17;4.27;;;;;;;;;;5137609;27;20310;-72
2021/06/09 14:05:02;;;;;;;5.07;3.87;;;;;;;;;;5137534;27;20214;-72
2021/06/09 14:07:44;;;;;;;3.60;3.30;;;;;;;;;;5138148;27;20236;-72
2021/06/09 14:10:13;;;;;;;4.40;3.60;;;;;;;;;;5138242;27;20209;-72
2021/06/09 14:12:44;;;;;;;4.47;3.83;;;;;;;;;;5127352;27;20238;-72
2021/06/09 14:15:13;;;;;;;4.27;3.97;;;;;;;;;;5138798;27;20287;-72
2021/06/09 14:17:41;;;;;;;3.83;3.53;;;;;;;;;;5139182;27;20267;-72
2021/06/09 14:20:11;;;;;;;4.23;3.30;;;;;;;;;;5138485;27;20204;-72
2021/06/09 14:22:40;;;;;;;3.30;3.00;;;;;;;;;;5138678;27;20232;-72
2021/06/09 14:25:10;;;;;;;3.60;3.30;;;;;;;;;;5138817;28;20209;-72
2021/06/09 14:27:53;;;;;;;3.43;3.13;;;;;;;;;;5138030;28;20238;-72
2021/06/09 14:30:22;;;;;;;3.40;3.10;;;;;;;;;;5138628;28;20244;-72
2021/06/09 14:33:08;;;;;;;3.63;3.33;;;;;;;;;;5139097;28;20313;-72
2021/06/09 14:35:42;;;;;;;3.20;2.90;;;;;;;;;;5139889;28;20239;-73
2021/06/09 14:38:17;;;;;;;3.63;2.87;;;;;;;;;;5139933;28;20234;-72
2021/06/09 14:40:45;;;;;;;3.03;2.73;;;;;;;;;;5140377;28;20206;-72
2021/06/09 14:43:14;;;;;;;3.80;3.20;;;;;;;;;;5139791;28;20307;-72
2021/06/09 14:45:46;;;;;;;4.83;3.73;;;;;;;;;;5138794;27;20209;-72
2021/06/09 14:51:05;;;;;;;4.57;3.83;;;;;;;;;;5139411;27;20631;-72
2021/06/09 14:53:33;;;;;;;5.23;4.00;;;;;;;;;;5142047;27;20242;-72
2021/06/09 14:56:00;;;;;;;4.30;3.90;;;;;;;;;;5141821;27;20288;-72
2021/06/09 14:58:29;;;;;;;4.70;4.17;;;;;;;;;;5141722;27;20292;-72